Time;durP1;ratioP1;P1;durP2;ratioP2;P2;SDS_P1;SDS_P2;PMS_P1;PMS_P2;Temp;Humidity;BMP_temperature;BMP_pressure;BME280_temperature;BME280_humidity;BME280_pressure;Samples;Min_cycle;Max_cycle;Signal;HPM_P1;HPM_P2
2023/01/16 00:00:03;;;;;;;14.00;7.20;;;;;;;3.65;100.00;98067.00;109543;1252;60191;-73
2023/01/16 00:02:30;;;;;;;14.50;7.50;;;;;;;3.60;100.00;98065.33;109498;1251;65342;-74
2023/01/16 00:04:57;;;;;;;11.90;7.00;;;;;;;3.56;100.00;98059.95;109441;1252;58358;-74
2023/01/16 00:07:24;;;;;;;12.80;7.30;;;;;;;3.51;100.00;98055.79;109471;1252;58191;-74
2023/01/16 00:09:50;;;;;;;16.10;8.30;;;;;;;3.48;100.00;98055.44;109500;1252;65407;-73
2023/01/16 00:12:17;;;;;;;16.50;8.00;;;;;;;3.44;100.00;98051.79;109518;1252;60719;-75
2023/01/16 00:14:44;;;;;;;10.30;6.80;;;;;;;3.41;100.00;98053.55;109512;1252;65220;-73
2023/01/16 00:17:10;;;;;;;8.20;5.60;;;;;;;3.37;100.00;98057.08;109151;1252;58199;-75
2023/01/16 00:19:37;;;;;;;7.00;5.20;;;;;;;3.31;100.00;98056.49;109490;1253;58047;-73
2023/01/16 00:22:04;;;;;;;6.90;5.10;;;;;;;3.26;100.00;98049.72;109473;1253;65167;-73
2023/01/16 00:24:30;;;;;;;7.30;5.00;;;;;;;3.22;100.00;98049.98;109391;1253;60189;-73
2023/01/16 00:26:57;;;;;;;7.20;5.90;;;;;;;3.16;100.00;98053.59;109498;1252;65083;-73
2023/01/16 00:29:23;;;;;;;10.20;6.50;;;;;;;3.10;100.00;98050.93;109475;1252;58176;-74
2023/01/16 00:31:50;;;;;;;20.30;10.10;;;;;;;3.07;100.00;98047.94;109484;1252;58108;-73
2023/01/16 00:34:17;;;;;;;27.30;13.60;;;;;;;3.05;100.00;98055.77;109532;1252;66389;-73
2023/01/16 00:36:44;;;;;;;23.20;12.20;;;;;;;3.02;100.00;98054.34;109520;1252;59820;-74
2023/01/16 00:39:10;;;;;;;22.40;11.40;;;;;;;2.98;100.00;98056.46;109480;1251;65067;-72
2023/01/16 00:41:37;;;;;;;24.00;11.80;;;;;;;2.95;100.00;98052.94;109191;1251;58183;-74
2023/01/16 00:44:04;;;;;;;28.60;13.90;;;;;;;2.92;100.00;98051.88;109541;1252;58145;-74
2023/01/16 00:46:30;;;;;;;30.00;14.30;;;;;;;2.89;100.00;98051.16;109528;1253;66613;-75
2023/01/16 00:48:57;;;;;;;18.60;10.40;;;;;;;2.85;100.00;98046.59;109479;1252;59909;-74
2023/01/16 00:51:24;;;;;;;8.60;5.80;;;;;;;2.83;100.00;98043.35;109503;1252;64162;-74
2023/01/16 00:53:52;;;;;;;8.90;6.00;;;;;;;2.80;100.00;98049.29;109154;1251;58175;-73
2023/01/16 00:56:19;;;;;;;8.40;6.00;;;;;;;2.78;100.00;98046.41;109509;1252;58221;-73
2023/01/16 00:58:45;;;;;;;12.30;8.20;;;;;;;2.78;100.00;98049.42;109534;1253;65293;-74
2023/01/16 01:01:12;;;;;;;19.30;12.30;;;;;;;2.77;100.00;98047.20;109219;1251;60257;-73
2023/01/16 01:03:39;;;;;;;25.30;14.60;;;;;;;2.74;100.00;98048.38;109353;1253;62844;-74
2023/01/16 01:06:13;;;;;;;30.30;17.10;;;;;;;2.69;100.00;98044.79;109500;1253;58189;-72
2023/01/16 01:08:40;;;;;;;26.40;14.40;;;;;;;2.65;100.00;98034.46;109513;1251;58056;-73
2023/01/16 01:11:13;;;;;;;15.20;9.40;;;;;;;2.62;100.00;98027.56;109560;1252;66450;-73
2023/01/16 01:13:40;;;;;;;8.40;6.60;;;;;;;2.59;100.00;98022.14;109547;1251;61127;-73
2023/01/16 01:16:07;;;;;;;8.50;7.10;;;;;;;2.52;100.00;98023.17;109551;1252;65176;-73
2023/01/16 01:18:34;;;;;;;9.50;7.20;;;;;;;2.46;100.00;98028.41;109349;1252;58177;-73
2023/01/16 01:21:01;;;;;;;8.60;7.50;;;;;;;2.42;100.00;98030.36;109274;1253;58362;-73
2023/01/16 01:23:28;;;;;;;11.70;7.70;;;;;;;2.37;100.00;98023.55;109485;1253;65150;-73
2023/01/16 01:25:55;;;;;;;10.20;8.00;;;;;;;2.33;100.00;98020.80;108782;1252;1002964;-72
2023/01/16 01:28:21;;;;;;;10.70;7.90;;;;;;;2.28;100.00;98025.94;109490;1251;73614;-74
2023/01/16 01:30:48;;;;;;;11.50;8.20;;;;;;;2.24;100.00;98028.23;109486;1252;58259;-74
2023/01/16 01:33:15;;;;;;;11.60;8.30;;;;;;;2.18;100.00;98027.99;109406;1252;58191;-73
2023/01/16 01:35:41;;;;;;;8.30;7.40;;;;;;;2.13;100.00;98026.13;109538;1252;66263;-73
2023/01/16 01:38:08;;;;;;;8.90;7.50;;;;;;;2.08;100.00;98029.19;109501;1252;60070;-73
2023/01/16 01:40:35;;;;;;;15.70;10.10;;;;;;;2.05;100.00;98034.78;109528;1252;65198;-72
2023/01/16 01:43:01;;;;;;;19.60;10.50;;;;;;;2.02;100.00;98029.11;109511;1255;58216;-74
2023/01/16 01:45:30;;;;;;;14.20;9.60;;;;;;;1.99;100.00;98027.70;109536;1252;58189;-73
2023/01/16 01:48:04;;;;;;;9.70;8.10;;;;;;;1.96;100.00;98030.81;109545;1252;65379;-75
2023/01/16 01:50:52;;;;;;;9.90;8.00;;;;;;;1.91;100.00;98031.05;109504;1253;61510;-75
2023/01/16 01:53:27;;;;;;;9.70;7.10;;;;;;;1.86;100.00;98026.41;109225;1252;65250;-73
2023/01/16 01:55:57;;;;;;;9.40;7.90;;;;;;;1.81;100.00;98018.55;109454;1252;58087;-73
2023/01/16 01:58:26;;;;;;;10.80;8.50;;;;;;;1.78;100.00;98009.45;109527;1253;58200;-73
2023/01/16 02:00:57;;;;;;;11.20;9.80;;;;;;;1.74;100.00;98004.70;109503;1252;66319;-73
2023/01/16 02:03:39;;;;;;;11.80;9.20;;;;;;;1.70;100.00;98001.92;109559;1252;60263;-74
2023/01/16 02:06:12;;;;;;;10.10;9.00;;;;;;;1.66;100.00;97999.11;109516;1252;64079;-71
2023/01/16 02:08:44;;;;;;;14.20;10.10;;;;;;;1.62;100.00;97993.05;109520;1253;58538;-74
2023/01/16 02:11:27;;;;;;;13.40;12.00;;;;;;;1.56;100.00;97994.50;109501;1252;58258;-73
2023/01/16 02:14:02;;;;;;;15.50;13.70;;;;;;;1.51;100.00;98000.52;109496;1251;66220;-74
2023/01/16 02:19:53;;;;;;;17.60;14.50;;;;;;;1.47;100.00;98006.50;109500;1252;65424;-73
2023/01/16 02:22:41;;;;;;;20.90;14.60;;;;;;;1.49;100.00;98005.54;108933;1259;58265;-74
2023/01/16 02:25:19;;;;;;;19.50;14.00;;;;;;;1.49;100.00;98002.00;108918;1259;58240;-73
2023/01/16 02:28:05;;;;;;;25.50;19.10;;;;;;;1.49;100.00;97994.13;108936;1259;66491;-73
2023/01/16 02:31:05;;;;;;;20.20;15.60;;;;;;;1.45;100.00;97991.34;108957;1259;61197;-74
2023/01/16 02:33:49;;;;;;;20.20;14.20;;;;;;;1.42;100.00;97992.02;108941;1259;65310;-74
2023/01/16 02:36:54;;;;;;;21.70;16.70;;;;;;;1.39;100.00;97991.83;108921;1259;58247;-73
2023/01/16 02:39:23;;;;;;;25.50;17.90;;;;;;;1.34;100.00;97996.25;108962;1259;58408;-74
2023/01/16 02:41:57;;;;;;;22.70;17.10;;;;;;;1.27;100.00;97995.70;108942;1260;66336;-74
2023/01/16 02:44:42;;;;;;;26.40;18.90;;;;;;;1.20;100.00;97996.86;108847;1262;61131;-74
2023/01/16 02:47:41;;;;;;;24.40;18.70;;;;;;;1.14;100.00;97991.55;108930;1259;64955;-74
2023/01/16 02:50:14;;;;;;;19.00;16.90;;;;;;;1.07;100.00;97984.35;108939;1259;58236;-74
2023/01/16 02:52:51;;;;;;;20.50;18.00;;;;;;;1.02;100.00;97988.38;108974;1259;58299;-74
2023/01/16 02:55:46;;;;;;;19.10;17.10;;;;;;;1.00;100.00;97993.03;108864;1259;65207;-74
2023/01/16 02:58:14;;;;;;;19.00;17.00;;;;;;;0.97;100.00;97992.33;108968;1253;60197;-74
2023/01/16 03:00:56;;;;;;;16.90;15.10;;;;;;;0.93;100.00;97988.13;109529;1252;64201;-74
2023/01/16 03:03:31;;;;;;;13.70;12.00;;;;;;;0.92;100.00;97984.30;109426;1253;58156;-74
2023/01/16 03:06:13;;;;;;;13.00;10.80;;;;;;;0.96;100.00;97976.63;109494;1253;58098;-73
2023/01/16 03:08:45;;;;;;;14.30;11.50;;;;;;;1.02;100.00;97971.80;109483;1253;66440;-73
2023/01/16 03:11:22;;;;;;;19.60;13.60;;;;;;;1.07;100.00;97969.84;109478;1252;60311;-74
2023/01/16 03:14:15;;;;;;;18.10;13.70;;;;;;;1.09;100.00;97969.70;109455;1253;65226;-72
2023/01/16 03:16:41;;;;;;;20.80;14.10;;;;;;;1.13;100.00;97968.65;109475;1252;58221;-73
2023/01/16 03:19:35;;;;;;;21.70;15.20;;;;;;;1.17;100.00;97966.58;109469;1253;58188;-72
2023/01/16 03:22:15;;;;;;;17.40;11.90;;;;;;;1.20;100.00;97967.30;109386;1252;66281;-73
2023/01/16 03:24:55;;;;;;;18.00;12.40;;;;;;;1.24;100.00;97969.95;109485;1253;59180;-73
2023/01/16 03:27:31;;;;;;;12.30;8.60;;;;;;;1.27;100.00;97965.06;109449;1253;65061;-73
2023/01/16 03:30:19;;;;;;;11.90;8.00;;;;;;;1.31;100.00;97973.82;108676;1253;1002411;-73
2023/01/16 03:33:16;;;;;;;11.10;7.90;;;;;;;1.35;100.00;97972.77;109480;1253;58586;-73
2023/01/16 03:35:55;;;;;;;12.40;8.90;;;;;;;1.37;100.00;97966.55;109463;1252;66295;-73
2023/01/16 03:38:24;;;;;;;14.20;9.70;;;;;;;1.40;100.00;97967.27;109476;1252;61240;-73
2023/01/16 03:40:52;;;;;;;20.40;13.80;;;;;;;1.43;100.00;97965.23;109207;1253;65251;-74
2023/01/16 03:43:32;;;;;;;17.20;11.20;;;;;;;1.44;100.00;97967.61;109176;1253;58228;-72
2023/01/16 03:46:06;;;;;;;12.10;9.60;;;;;;;1.46;100.00;97968.57;109496;1253;58557;-73
2023/01/16 03:48:54;;;;;;;13.90;9.60;;;;;;;1.47;100.00;97964.65;109488;1253;66433;-74
2023/01/16 03:51:24;;;;;;;15.80;12.00;;;;;;;1.49;100.00;97962.46;109451;1251;60234;-73
2023/01/16 03:54:10;;;;;;;18.00;13.40;;;;;;;1.51;100.00;97960.44;109548;1251;63261;-73
2023/01/16 03:56:44;;;;;;;15.70;10.60;;;;;;;1.54;100.00;97954.69;109493;1252;58247;-73
2023/01/16 03:59:11;;;;;;;13.10;9.40;;;;;;;1.58;100.00;97955.39;109527;1252;58272;-72
2023/01/16 04:01:53;;;;;;;10.40;7.70;;;;;;;1.62;100.00;97950.66;109567;1252;66494;-73
2023/01/16 04:04:42;;;;;;;10.20;7.50;;;;;;;1.64;100.00;97944.41;109577;1252;58423;-74
2023/01/16 04:07:15;;;;;;;10.50;7.70;;;;;;;1.67;100.00;97939.04;109536;1251;65297;-74
2023/01/16 04:09:54;;;;;;;10.90;8.60;;;;;;;1.74;100.00;97934.66;109394;1252;58288;-73
2023/01/16 04:12:24;;;;;;;9.60;7.50;;;;;;;1.78;100.00;97936.77;109538;1253;58308;-74
2023/01/16 04:14:59;;;;;;;11.00;8.00;;;;;;;1.78;100.00;97942.54;109555;1251;66648;-73
2023/01/16 04:17:27;;;;;;;14.20;9.00;;;;;;;1.77;100.00;97938.55;109494;1253;61529;-74
2023/01/16 04:19:54;;;;;;;16.00;10.20;;;;;;;1.74;100.00;97935.02;109501;1252;64098;-74
2023/01/16 04:22:26;;;;;;;12.70;10.30;;;;;;;1.71;100.00;97932.18;109573;1251;58153;-74
2023/01/16 04:24:55;;;;;;;12.40;10.10;;;;;;;1.68;100.00;97922.02;109540;1252;58251;-73
2023/01/16 04:27:22;;;;;;;13.70;10.60;;;;;;;1.65;100.00;97916.00;109524;1252;66279;-72
2023/01/16 04:29:48;;;;;;;11.00;9.20;;;;;;;1.65;100.00;97912.54;109517;1253;60109;-73
2023/01/16 04:32:15;;;;;;;12.40;8.80;;;;;;;1.64;100.00;97908.17;108424;1253;1002219;-75
2023/01/16 04:34:42;;;;;;;10.60;8.70;;;;;;;1.64;100.00;97901.73;109521;1252;58294;-74
2023/01/16 04:37:12;;;;;;;14.70;11.30;;;;;;;1.63;100.00;97898.45;109448;1251;58232;-73
2023/01/16 04:39:40;;;;;;;19.00;15.50;;;;;;;1.61;100.00;97894.86;109517;1251;65226;-74
2023/01/16 04:42:08;;;;;;;16.40;14.70;;;;;;;1.60;100.00;97892.11;109511;1252;61225;-74
2023/01/16 04:44:35;;;;;;;19.40;14.20;;;;;;;1.59;100.00;97887.98;109216;1252;62843;-74
2023/01/16 04:47:02;;;;;;;19.20;15.30;;;;;;;1.57;100.00;97883.84;109229;1253;58226;-73
2023/01/16 04:49:29;;;;;;;19.10;15.10;;;;;;;1.56;100.00;97880.57;109559;1253;58989;-74
2023/01/16 04:51:56;;;;;;;20.50;17.50;;;;;;;1.54;100.00;97878.93;109494;1252;66417;-73
2023/01/16 04:54:23;;;;;;;19.10;16.40;;;;;;;1.51;100.00;97880.77;109544;1253;61388;-74
2023/01/16 04:56:49;;;;;;;24.30;18.70;;;;;;;1.49;100.00;97874.94;109520;1253;65163;-74
2023/01/16 04:59:17;;;;;;;22.50;19.80;;;;;;;1.47;100.00;97873.46;109531;1252;58120;-75
2023/01/16 05:01:45;;;;;;;24.00;20.70;;;;;;;1.45;100.00;97872.52;109534;1252;58314;-73
2023/01/16 05:04:14;;;;;;;22.20;19.90;;;;;;;1.44;100.00;97868.36;109520;1251;65232;-74
2023/01/16 05:06:41;;;;;;;25.20;21.20;;;;;;;1.44;100.00;97868.02;109498;1255;60083;-74
2023/01/16 05:09:08;;;;;;;24.20;19.80;;;;;;;1.44;100.00;97867.64;109534;1253;64835;-73
2023/01/16 05:11:35;;;;;;;23.70;21.10;;;;;;;1.44;100.00;97866.94;109500;1253;58155;-74
2023/01/16 05:14:02;;;;;;;29.10;23.60;;;;;;;1.43;100.00;97862.13;109538;1253;59983;-74
2023/01/16 05:16:29;;;;;;;25.60;21.70;;;;;;;1.41;100.00;97863.61;109548;1252;66444;-73
2023/01/16 05:18:55;;;;;;;23.30;20.80;;;;;;;1.41;100.00;97859.27;109489;1254;60297;-74
2023/01/16 05:21:22;;;;;;;24.10;19.90;;;;;;;1.40;100.00;97858.98;109572;1252;65008;-73
2023/01/16 05:23:49;;;;;;;21.30;18.30;;;;;;;1.37;100.00;97856.45;109503;1252;58049;-73
2023/01/16 05:26:15;;;;;;;22.00;19.10;;;;;;;1.36;100.00;97855.27;109182;1253;58262;-73
2023/01/16 05:28:42;;;;;;;27.40;21.30;;;;;;;1.35;100.00;97851.69;109557;1253;66231;-73
2023/01/16 05:31:08;;;;;;;22.00;19.50;;;;;;;1.34;100.00;97852.06;109549;1251;61140;-74
2023/01/16 05:33:35;;;;;;;23.60;19.00;;;;;;;1.34;100.00;97857.13;109360;1253;65229;-74
2023/01/16 05:36:02;;;;;;;22.90;17.80;;;;;;;1.31;100.00;97853.05;109225;1252;58638;-74
2023/01/16 05:38:29;;;;;;;23.40;17.70;;;;;;;1.28;100.00;97845.01;109591;1252;58110;-72
2023/01/16 05:40:56;;;;;;;24.30;18.10;;;;;;;1.25;100.00;97840.44;109503;1253;66481;-76
2023/01/16 05:43:22;;;;;;;25.20;21.70;;;;;;;1.24;100.00;97836.65;109526;1254;60135;-74
2023/01/16 05:45:49;;;;;;;22.90;19.90;;;;;;;1.22;100.00;97834.27;109184;1253;73763;-74
2023/01/16 05:48:16;;;;;;;23.20;19.30;;;;;;;1.21;100.00;97835.55;109512;1252;58096;-74
2023/01/16 05:50:43;;;;;;;22.00;18.50;;;;;;;1.20;100.00;97832.43;109579;1252;58303;-73
2023/01/16 05:53:10;;;;;;;23.70;20.50;;;;;;;1.19;100.00;97830.94;109532;1253;66444;-73
2023/01/16 05:55:44;;;;;;;30.50;24.20;;;;;;;1.19;100.00;97831.94;107999;1253;1002511;-73
2023/01/16 05:58:11;;;;;;;31.60;25.90;;;;;;;1.19;100.00;97830.71;109509;1253;73058;-73
2023/01/16 06:00:39;;;;;;;47.10;39.10;;;;;;;1.22;100.00;97834.24;109501;1252;58133;-74
2023/01/16 06:03:06;;;;;;;38.20;31.90;;;;;;;1.26;100.00;97832.13;109546;1255;58206;-72
2023/01/16 06:05:34;;;;;;;45.60;40.60;;;;;;;1.28;100.00;97830.99;109277;1252;66678;-72
2023/01/16 06:08:01;;;;;;;39.60;34.90;;;;;;;1.29;100.00;97829.73;109514;1252;60316;-73
2023/01/16 06:10:28;;;;;;;39.40;33.60;;;;;;;1.30;100.00;97827.20;109517;1252;65242;-74
2023/01/16 06:12:54;;;;;;;40.80;32.10;;;;;;;1.33;100.00;97823.40;109390;1253;58604;-74
2023/01/16 06:15:21;;;;;;;38.10;33.20;;;;;;;1.35;100.00;97820.52;109536;1253;58305;-74
2023/01/16 06:17:50;;;;;;;36.50;29.70;;;;;;;1.38;100.00;97817.92;109504;1253;66415;-74
2023/01/16 06:20:17;;;;;;;32.80;25.40;;;;;;;1.41;100.00;97818.13;109234;1252;61182;-73
2023/01/16 06:22:43;;;;;;;34.00;29.50;;;;;;;1.43;100.00;97815.23;109503;1251;64184;-73
2023/01/16 06:25:10;;;;;;;35.60;28.50;;;;;;;1.43;100.00;97812.98;109520;1252;58153;-74
2023/01/16 06:27:37;;;;;;;42.70;29.80;;;;;;;1.41;100.00;97808.64;109549;1253;58103;-73
2023/01/16 06:30:06;;;;;;;49.60;33.20;;;;;;;1.42;100.00;97802.86;109529;1253;66456;-74
2023/01/16 06:32:33;;;;;;;46.30;32.50;;;;;;;1.46;100.00;97803.69;109398;1251;61160;-73
2023/01/16 06:34:59;;;;;;;44.90;34.60;;;;;;;1.50;100.00;97804.20;109466;1253;64157;-74
2023/01/16 06:37:26;;;;;;;47.80;34.10;;;;;;;1.51;100.00;97803.44;109498;1252;58132;-74
2023/01/16 06:39:54;;;;;;;44.80;33.00;;;;;;;1.52;100.00;97801.09;109537;1256;58047;-73
2023/01/16 06:42:21;;;;;;;44.80;34.80;;;;;;;1.53;100.00;97797.40;109526;1252;66242;-74
2023/01/16 06:44:48;;;;;;;44.70;35.20;;;;;;;1.54;100.00;97796.80;109540;1252;60070;-75
2023/01/16 06:47:15;;;;;;;45.00;34.80;;;;;;;1.55;100.00;97793.09;109488;1253;64251;-73
2023/01/16 06:49:43;;;;;;;46.70;36.60;;;;;;;1.55;100.00;97793.44;109527;1253;58206;-73
2023/01/16 06:52:10;;;;;;;50.70;38.30;;;;;;;1.56;100.00;97790.77;109498;1252;58220;-74
2023/01/16 06:54:37;;;;;;;49.90;39.10;;;;;;;1.58;100.00;97789.64;109484;1253;66675;-75
2023/01/16 06:57:04;;;;;;;51.50;40.30;;;;;;;1.59;100.00;97786.45;109508;1252;60326;-75
2023/01/16 06:59:31;;;;;;;60.00;47.90;;;;;;;1.60;100.00;97785.86;109488;1254;65192;-75
2023/01/16 07:01:57;;;;;;;69.20;52.30;;;;;;;1.59;100.00;97785.86;109472;1254;58216;-74
2023/01/16 07:04:24;;;;;;;67.30;53.30;;;;;;;1.59;100.00;97781.87;109521;1254;58202;-74
2023/01/16 07:06:51;;;;;;;59.90;50.60;;;;;;;1.59;100.00;97779.09;109506;1252;65212;-74
2023/01/16 07:09:19;;;;;;;56.70;49.80;;;;;;;1.58;100.00;97779.48;109213;1253;60880;-74
2023/01/16 07:11:47;;;;;;;61.20;50.30;;;;;;;1.56;100.00;97779.57;109523;1251;64100;-75
2023/01/16 07:22:43;;;;;;;59.40;43.00;;;;;;;1.59;100.00;97783.12;109491;1253;61178;-74
2023/01/16 07:25:16;;;;;;;59.70;43.80;;;;;;;1.59;100.00;97783.63;109444;1254;65225;-74
2023/01/16 07:27:47;;;;;;;60.20;46.00;;;;;;;1.60;100.00;97779.05;109461;1254;58187;-74
2023/01/16 07:30:16;;;;;;;55.10;44.30;;;;;;;1.61;100.00;97776.16;109507;1252;58225;-74
2023/01/16 07:32:43;;;;;;;56.60;46.00;;;;;;;1.65;100.00;97773.69;109513;1254;66259;-73
2023/01/16 07:35:10;;;;;;;57.80;46.50;;;;;;;1.69;100.00;97771.38;109485;1252;60140;-73
2023/01/16 07:37:38;;;;;;;56.30;45.30;;;;;;;1.73;100.00;97770.45;109485;1252;65391;-75
2023/01/16 07:40:06;;;;;;;54.00;42.90;;;;;;;1.78;100.00;97767.59;109511;1253;58193;-74
2023/01/16 07:42:32;;;;;;;102.80;84.70;;;;;;;1.84;100.00;97763.08;109524;1252;58323;-74
2023/01/16 07:44:59;;;;;;;136.80;104.30;;;;;;;1.90;100.00;97758.23;109544;1253;66502;-74
2023/01/16 07:47:26;;;;;;;106.00;87.10;;;;;;;1.96;100.00;97755.63;109538;1254;61265;-74
2023/01/16 07:49:52;;;;;;;73.40;58.80;;;;;;;2.02;100.00;97751.63;109498;1253;65082;-74
2023/01/16 07:52:19;;;;;;;62.70;52.00;;;;;;;2.08;100.00;97744.34;109499;1254;58119;-74
2023/01/16 07:54:46;;;;;;;58.00;49.30;;;;;;;2.13;100.00;97737.74;109520;1251;58030;-75
2023/01/16 07:57:13;;;;;;;61.40;50.70;;;;;;;2.21;100.00;97732.27;109473;1253;65222;-75
2023/01/16 07:59:39;;;;;;;65.70;57.20;;;;;;;2.27;100.00;97723.66;109501;1253;60187;-75
2023/01/16 08:02:09;;;;;;;64.30;55.90;;;;;;;2.31;100.00;97721.17;109352;1253;157008;-74
2023/01/16 08:04:36;;;;;;;65.50;56.30;;;;;;;2.34;100.00;97719.62;109287;1252;58362;-74
2023/01/16 08:07:03;;;;;;;64.00;57.00;;;;;;;2.37;100.00;97716.98;109509;1253;58957;-74
2023/01/16 08:09:31;;;;;;;66.70;57.40;;;;;;;2.41;100.00;97710.13;109498;1253;66166;-75
2023/01/16 08:11:57;;;;;;;73.20;65.20;;;;;;;2.46;100.00;97702.51;109360;1254;61086;-74
2023/01/16 08:14:24;;;;;;;67.90;57.30;;;;;;;2.51;100.00;97700.45;109536;1253;62897;-75
2023/01/16 08:16:51;;;;;;;64.30;56.60;;;;;;;2.56;100.00;97697.40;109434;1252;58514;-74
2023/01/16 08:19:17;;;;;;;69.50;62.00;;;;;;;2.59;100.00;97697.04;109224;1254;58247;-74
2023/01/16 08:21:44;;;;;;;66.70;59.20;;;;;;;2.64;100.00;97691.86;109475;1252;66273;-74
2023/01/16 08:24:12;;;;;;;69.80;60.80;;;;;;;2.70;100.00;97683.30;109459;1252;61067;-73
2023/01/16 08:26:39;;;;;;;67.50;60.20;;;;;;;2.76;100.00;97681.93;109516;1253;64212;-75
2023/01/16 08:29:09;;;;;;;67.40;58.90;;;;;;;2.83;100.00;97678.89;109191;1252;58251;-73
2023/01/16 08:31:36;;;;;;;71.20;62.40;;;;;;;2.88;100.00;97673.33;109496;1254;58148;-74
2023/01/16 08:34:02;;;;;;;70.60;62.70;;;;;;;2.93;100.00;97671.27;108703;1254;1002299;-74
2023/01/16 08:36:29;;;;;;;67.30;60.10;;;;;;;3.01;100.00;97664.88;109506;1252;61122;-73
2023/01/16 08:38:56;;;;;;;68.50;61.10;;;;;;;3.09;100.00;97663.36;109474;1253;65184;-74
2023/01/16 08:52:31;;;;;;;76.60;67.10;;;;;;;3.41;100.00;97648.98;109406;1252;65561;-75
2023/01/16 08:54:59;;;;;;;67.20;59.10;;;;;;;3.46;100.00;97645.71;109488;1253;58181;-75
2023/01/16 08:57:27;;;;;;;63.10;53.90;;;;;;;3.49;100.00;97643.10;109507;1252;58361;-75
2023/01/16 08:59:55;;;;;;;60.70;51.50;;;;;;;3.48;100.00;97634.34;109575;1252;66210;-74
2023/01/16 09:02:23;;;;;;;64.30;52.80;;;;;;;3.48;100.00;97630.48;109492;1252;60270;-75
2023/01/16 09:04:50;;;;;;;63.30;52.90;;;;;;;3.48;100.00;97627.86;109505;1252;64777;-75
2023/01/16 09:07:17;;;;;;;68.10;54.10;;;;;;;3.48;100.00;97622.91;109471;1253;58139;-74
2023/01/16 09:09:43;;;;;;;62.00;53.10;;;;;;;3.51;100.00;97614.85;109440;1253;58252;-74
2023/01/16 09:14:57;;;;;;;57.50;48.60;;;;;;;3.56;100.00;97609.29;109274;1253;60278;-74
2023/01/16 09:17:26;;;;;;;58.20;48.90;;;;;;;3.57;100.00;97604.50;109486;1253;64721;-75
2023/01/16 09:19:52;;;;;;;56.60;47.10;;;;;;;3.57;100.00;97597.64;109430;1251;58128;-75
2023/01/16 09:22:19;;;;;;;60.40;48.60;;;;;;;3.59;100.00;97589.98;109467;1253;58328;-76
2023/01/16 09:24:46;;;;;;;56.10;47.30;;;;;;;3.63;100.00;97580.76;109496;1252;65209;-76
2023/01/16 09:27:13;;;;;;;58.40;45.90;;;;;;;3.66;100.00;97569.89;109510;1253;61073;-75
2023/01/16 09:29:41;;;;;;;60.10;46.80;;;;;;;3.66;100.00;97563.89;109476;1252;65461;-75
2023/01/16 09:32:08;;;;;;;50.10;41.00;;;;;;;3.67;100.00;97553.79;109465;1253;58267;-75
2023/01/16 09:34:37;;;;;;;52.40;42.60;;;;;;;3.68;100.00;97546.70;109469;1254;58224;-76
2023/01/16 09:37:05;;;;;;;44.10;35.80;;;;;;;3.72;100.00;97539.83;109383;1253;66339;-75
2023/01/16 09:39:32;;;;;;;49.10;39.90;;;;;;;3.74;100.00;97539.52;109485;1252;61089;-75
2023/01/16 09:45:11;;;;;;;42.10;34.00;;;;;;;3.78;100.00;97535.27;109439;1253;58213;-76
2023/01/16 09:47:41;;;;;;;41.20;32.90;;;;;;;3.82;100.00;97534.48;109164;1252;58166;-75
2023/01/16 09:50:19;;;;;;;;;;;;;;;3.91;100.00;97518.60;109543;1252;65248;-75
2023/01/16 09:58:35;;;;;;;35.80;30.40;;;;;;;4.11;100.00;97496.73;109479;1252;58239;-76
2023/01/16 10:01:08;;;;;;;36.00;32.00;;;;;;;4.23;100.00;97491.06;109457;1253;58499;-76
2023/01/16 10:03:42;;;;;;;34.90;30.20;;;;;;;4.34;100.00;97481.35;109258;1253;66613;-74
2023/01/16 10:06:29;;;;;;;36.20;30.10;;;;;;;4.44;100.00;97477.89;109495;1254;60107;-75
2023/01/16 10:09:08;;;;;;;38.90;33.10;;;;;;;4.51;100.00;97469.01;109434;1253;65066;-75
2023/01/16 10:11:58;;;;;;;34.30;29.80;;;;;;;4.61;100.00;97462.52;109423;1253;58141;-73
2023/01/16 10:14:50;;;;;;;36.80;30.10;;;;;;;4.69;100.00;97463.40;109551;1254;58163;-74
2023/01/16 10:17:46;;;;;;;38.30;30.80;;;;;;;4.72;100.00;97463.84;109489;1252;66373;-74
2023/01/16 10:20:28;;;;;;;35.30;29.60;;;;;;;4.79;100.00;97461.07;109480;1252;61089;-75
2023/01/16 10:23:16;;;;;;;34.00;28.20;;;;;;;4.84;100.00;97448.64;109354;1252;64286;-76
2023/01/16 10:26:28;;;;;;;34.60;29.60;;;;;;;4.90;100.00;97438.06;109490;1253;58190;-75
2023/01/16 10:29:05;;;;;;;31.20;26.80;;;;;;;4.94;100.00;97426.68;108919;1260;58153;-75
2023/01/16 10:31:42;;;;;;;34.80;28.80;;;;;;;4.99;100.00;97425.05;108985;1259;66420;-76
2023/01/16 10:34:24;;;;;;;31.00;26.90;;;;;;;5.06;100.00;97421.61;108919;1258;61129;-76
2023/01/16 10:36:56;;;;;;;30.40;26.70;;;;;;;5.14;100.00;97408.70;108795;1259;65416;-76
2023/01/16 10:39:30;;;;;;;29.80;25.80;;;;;;;5.21;100.00;97397.27;108837;1259;58259;-76
2023/01/16 10:50:31;;;;;;;28.00;23.00;;;;;;;5.43;100.00;97377.94;108846;1259;64066;-76
2023/01/16 10:52:58;;;;;;;28.60;23.60;;;;;;;5.49;100.00;97374.32;108816;1259;58227;-77
2023/01/16 10:55:25;;;;;;;27.60;21.90;;;;;;;5.58;100.00;97366.51;108941;1258;58301;-77
2023/01/16 10:57:58;;;;;;;24.80;21.10;;;;;;;5.64;100.00;97357.21;108908;1259;65175;-77
2023/01/16 11:00:33;;;;;;;25.60;22.80;;;;;;;5.75;100.00;97347.95;108965;1258;60225;-76
2023/01/16 11:03:14;;;;;;;25.30;22.30;;;;;;;5.87;100.00;97343.35;108921;1259;64305;-76
2023/01/16 11:05:41;;;;;;;25.80;22.70;;;;;;;5.98;100.00;97342.90;108970;1254;58199;-76
2023/01/16 11:08:17;;;;;;;25.70;21.30;;;;;;;6.09;100.00;97340.84;109427;1252;58086;-76
2023/01/16 11:10:46;;;;;;;26.90;21.10;;;;;;;6.21;100.00;97336.98;109526;1252;66661;-76
2023/01/16 11:18:53;;;;;;;21.40;19.10;;;;;;;6.17;100.00;97317.02;109217;1252;58322;-77
2023/01/16 11:21:31;;;;;;;23.70;20.80;;;;;;;6.15;100.00;97314.27;109349;1252;58206;-77
2023/01/16 11:24:05;;;;;;;21.60;17.80;;;;;;;6.15;100.00;97310.29;109358;1251;65314;-77
2023/01/16 11:26:32;;;;;;;22.30;18.80;;;;;;;6.16;100.00;97304.20;109502;1252;60222;-76
2023/01/16 11:28:59;;;;;;;23.80;17.70;;;;;;;6.13;100.00;97297.00;109484;1252;65153;-77
2023/01/16 11:31:31;;;;;;;25.40;18.70;;;;;;;6.12;100.00;97293.21;109475;1253;58203;-75
2023/01/16 11:34:02;;;;;;;25.10;19.30;;;;;;;6.11;100.00;97291.67;109508;1252;58522;-76
2023/01/16 11:36:32;;;;;;;23.30;18.10;;;;;;;6.11;100.00;97280.45;109504;1251;66505;-77
2023/01/16 11:39:00;;;;;;;19.10;16.90;;;;;;;6.12;100.00;97268.31;109123;1252;61033;-76
2023/01/16 11:41:32;;;;;;;20.80;17.50;;;;;;;6.15;100.00;97263.88;109474;1253;64705;-76
2023/01/16 11:47:11;;;;;;;23.90;19.30;;;;;;;6.22;100.00;97244.83;109520;1252;58284;-76
2023/01/16 11:49:43;;;;;;;23.30;18.60;;;;;;;6.30;100.00;97233.67;109503;1252;66260;-76
2023/01/16 11:52:36;;;;;;;18.40;15.40;;;;;;;6.36;100.00;97231.91;109172;1257;59009;-76
2023/01/16 11:55:06;;;;;;;13.90;12.40;;;;;;;6.38;100.00;97230.88;109516;1253;63992;-76
2023/01/16 11:58:16;;;;;;;13.40;11.80;;;;;;;6.33;100.00;97225.98;109354;1253;58132;-78
2023/01/16 12:00:42;;;;;;;13.50;12.10;;;;;;;6.24;100.00;97225.33;108934;1260;58337;-76
2023/01/16 12:03:28;;;;;;;14.70;11.60;;;;;;;6.17;100.00;97219.81;108956;1259;66428;-76
2023/01/16 12:06:10;;;;;;;15.70;12.80;;;;;;;6.14;100.00;97215.49;108916;1259;60593;-76
2023/01/16 12:08:40;;;;;;;13.00;10.40;;;;;;;6.04;100.00;97204.12;108892;1259;65168;-77
2023/01/16 12:11:34;;;;;;;11.40;10.20;;;;;;;5.99;100.00;97198.52;108930;1259;58157;-76
2023/01/16 12:14:33;;;;;;;12.00;9.20;;;;;;;5.92;100.00;97193.52;108898;1259;58268;-77
2023/01/16 12:17:02;;;;;;;12.80;9.40;;;;;;;5.88;100.00;97188.02;108868;1259;66399;-76
2023/01/16 12:19:59;;;;;;;9.40;8.30;;;;;;;5.88;100.00;97182.18;108947;1259;61053;-76
2023/01/16 12:22:55;;;;;;;12.50;8.90;;;;;;;5.90;100.00;97175.66;108869;1259;65244;-77